Time;durP1;ratioP1;P1;durP2;ratioP2;P2;SDS_P1;SDS_P2;PMS_P1;PMS_P2;Temp;Humidity;BMP_temperature;BMP_pressure;BME280_temperature;BME280_humidity;BME280_pressure;Samples;Min_cycle;Max_cycle;Signal;HPM_P1;HPM_P2
2023/06/04 00:01:10;;;;;;;0.40;0.20;;;;;;;18.08;100.00;95433.84;5111165;28;20993;-58
2023/06/04 00:03:44;;;;;;;0.70;0.30;;;;;;;18.30;100.00;95438.28;5112286;28;20801;-58
2023/06/04 00:06:14;;;;;;;0.47;0.33;;;;;;;18.16;100.00;95432.28;5111807;28;20432;-58
2023/06/04 00:08:42;;;;;;;0.40;0.30;;;;;;;18.30;100.00;95435.59;5112008;28;20431;-58
2023/06/04 00:11:11;;;;;;;0.63;0.43;;;;;;;18.34;100.00;95436.56;5111727;28;20459;-57
2023/06/04 00:13:39;;;;;;;0.40;0.30;;;;;;;18.37;100.00;95433.22;5112085;28;20442;-57
2023/06/04 00:16:07;;;;;;;0.53;0.40;;;;;;;18.41;100.00;95434.19;5111699;28;20479;-57
2023/06/04 00:18:36;;;;;;;0.50;0.50;;;;;;;18.37;100.00;95438.59;5111549;28;20962;-57
2023/06/04 00:21:04;;;;;;;0.40;0.30;;;;;;;18.33;100.00;95430.41;5111547;28;20435;-57
2023/06/04 00:23:35;;;;;;;0.50;0.50;;;;;;;18.16;100.00;95432.28;5111520;28;20526;-57
2023/06/04 00:26:04;;;;;;;0.43;0.30;;;;;;;18.08;100.00;95435.75;5111634;28;20443;-57
2023/06/04 00:28:33;;;;;;;0.50;0.30;;;;;;;18.01;100.00;95438.88;5110910;28;20464;-57
2023/06/04 00:31:01;;;;;;;4.23;1.13;;;;;;;17.89;100.00;95436.00;5111549;28;20465;-57
2023/06/04 00:33:29;;;;;;;0.60;0.50;;;;;;;17.78;100.00;95440.09;5111829;28;20504;-57
2023/06/04 00:35:58;;;;;;;0.60;0.30;;;;;;;17.77;100.00;95436.63;5111274;28;20878;-57
2023/06/04 00:38:27;;;;;;;0.40;0.30;;;;;;;17.76;100.00;95445.75;5112035;28;20436;-57
2023/06/04 00:40:56;;;;;;;0.40;0.30;;;;;;;17.31;100.00;95436.25;5101928;28;20476;-56
2023/06/04 00:43:26;;;;;;;0.60;0.40;;;;;;;17.38;100.00;95438.50;5108886;28;20435;-56
2023/06/04 00:45:55;;;;;;;0.43;0.30;;;;;;;17.54;100.00;95448.50;5111390;28;20451;-56
2023/06/04 00:48:27;;;;;;;1.13;0.50;;;;;;;16.90;100.00;95360.75;5111464;28;20428;-56
2023/06/04 00:50:56;;;;;;;0.60;0.40;;;;;;;17.47;100.00;95432.06;5111525;28;20435;-56
2023/06/04 00:53:25;;;;;;;0.60;0.50;;;;;;;17.38;100.00;95438.50;5111506;28;20431;-56
2023/06/04 00:55:54;;;;;;;0.40;0.30;;;;;;;17.04;100.00;95442.56;5111186;28;20463;-56
2023/06/04 00:58:24;;;;;;;1.03;0.40;;;;;;;17.07;100.00;95430.47;5114626;28;20484;-56
2023/06/04 01:00:57;;;;;;;0.70;0.30;;;;;;;17.43;100.00;95441.03;5114893;28;20440;-56
2023/06/04 01:03:31;;;;;;;0.40;0.37;;;;;;;17.50;100.00;95442.16;5115135;28;20942;-56
2023/06/04 01:06:08;;;;;;;0.50;0.40;;;;;;;17.41;100.00;95437.84;5114871;28;20440;-56
2023/06/04 01:08:38;;;;;;;0.50;0.47;;;;;;;17.41;100.00;95446.69;5115583;28;20443;-56
2023/06/04 01:11:06;;;;;;;0.53;0.40;;;;;;;17.60;100.00;95444.59;5115098;28;20583;-56
2023/06/04 01:13:36;;;;;;;0.47;0.40;;;;;;;17.58;100.00;95449.47;5115164;28;20443;-56
2023/06/04 01:16:05;;;;;;;0.40;0.30;;;;;;;17.59;100.00;95444.91;5114833;28;20482;-55
2023/06/04 01:18:37;;;;;;;0.40;0.30;;;;;;;17.51;100.00;95441.06;5115280;28;20512;-55
2023/06/04 01:21:09;;;;;;;1.83;0.30;;;;;;;17.38;100.00;95441.19;5114935;28;20558;-55
2023/06/04 01:23:46;;;;;;;0.50;0.40;;;;;;;17.35;100.00;95442.59;5114411;28;20428;-56
2023/06/04 01:26:15;;;;;;;0.83;0.47;;;;;;;17.25;100.00;95450.88;5103654;28;20454;-55
2023/06/04 01:28:47;;;;;;;0.70;0.70;;;;;;;17.01;100.00;95453.88;5113956;28;20507;-55
2023/06/04 01:31:16;;;;;;;0.40;0.30;;;;;;;16.65;100.00;95455.84;5114927;28;20440;-55
2023/06/04 01:33:44;;;;;;;0.40;0.30;;;;;;;16.40;100.00;95467.09;5114198;28;20535;-55
2023/06/04 01:36:13;;;;;;;0.57;0.50;;;;;;;16.55;100.00;95463.31;5114658;28;20825;-55
2023/06/04 01:38:41;;;;;;;0.40;0.27;;;;;;;16.69;100.00;95453.34;5114568;28;20440;-55
2023/06/04 01:41:09;;;;;;;0.40;0.30;;;;;;;16.93;100.00;95465.31;5114178;28;20496;-55
2023/06/04 01:43:38;;;;;;;0.50;0.40;;;;;;;17.30;100.00;95466.81;5114713;28;20428;-55
2023/06/04 01:46:08;;;;;;;1.23;0.33;;;;;;;17.20;100.00;95458.25;5114371;28;20485;-55
2023/06/04 01:48:37;;;;;;;2.50;1.20;;;;;;;16.96;100.00;95466.59;5114700;28;20519;-55
2023/06/04 01:51:06;;;;;;;1.33;1.27;;;;;;;16.78;100.00;95467.56;5114419;28;20448;-55
2023/06/04 01:53:34;;;;;;;0.50;0.40;;;;;;;16.81;100.00;95478.47;5114271;28;20528;-55
2023/06/04 01:56:03;;;;;;;0.50;0.30;;;;;;;17.13;100.00;95474.75;5114345;28;20432;-55
2023/06/04 01:58:31;;;;;;;0.40;0.30;;;;;;;17.22;100.00;95474.81;5114285;28;20478;-55
2023/06/04 02:01:02;;;;;;;0.50;0.30;;;;;;;17.00;100.00;95481.75;5114147;28;20440;-55
2023/06/04 02:03:36;;;;;;;0.40;0.30;;;;;;;17.25;100.00;95488.38;5114227;28;20431;-56
2023/06/04 02:06:07;;;;;;;0.47;0.40;;;;;;;17.03;100.00;95442.84;5113498;28;20924;-55
2023/06/04 02:08:36;;;;;;;0.50;0.40;;;;;;;17.09;100.00;95482.63;5112906;28;20978;-56
2023/06/04 02:11:04;;;;;;;0.70;0.50;;;;;;;17.26;100.00;95489.94;5113856;28;20939;-56
2023/06/04 02:13:33;;;;;;;0.50;0.40;;;;;;;16.93;100.00;95493.97;5114123;28;20438;-56
2023/06/04 02:16:02;;;;;;;1.13;1.13;;;;;;;16.83;100.00;95497.69;5113714;28;20459;-56
2023/06/04 02:18:32;;;;;;;0.50;0.30;;;;;;;17.02;100.00;95500.22;5113785;28;20566;-57
2023/06/04 02:21:00;;;;;;;0.70;0.70;;;;;;;17.26;100.00;95500.66;5113731;28;21008;-56
2023/06/04 02:23:28;;;;;;;0.40;0.30;;;;;;;17.02;100.00;95498.31;5113528;28;20468;-56
2023/06/04 02:25:57;;;;;;;0.60;0.53;;;;;;;16.88;100.00;95507.50;5113984;28;20818;-56
2023/06/04 02:28:25;;;;;;;1.00;1.00;;;;;;;16.76;100.00;95516.06;5112938;28;20464;-56
2023/06/04 02:30:54;;;;;;;0.90;0.70;;;;;;;17.12;100.00;95510.66;5113352;28;20438;-56
2023/06/04 02:33:22;;;;;;;0.60;0.30;;;;;;;17.22;100.00;95513.09;5113065;28;20436;-56
2023/06/04 02:35:52;;;;;;;0.40;0.30;;;;;;;17.36;100.00;95510.31;5113751;28;20799;-56
2023/06/04 02:38:20;;;;;;;0.40;0.30;;;;;;;17.36;100.00;95511.13;5113294;27;20966;-56
2023/06/04 02:40:49;;;;;;;1.33;0.40;;;;;;;17.13;100.00;95506.88;5113304;28;20440;-56
2023/06/04 02:43:17;;;;;;;0.40;0.30;;;;;;;17.34;100.00;95513.31;5113281;28;20431;-56
2023/06/04 02:45:45;;;;;;;1.40;0.50;;;;;;;17.39;100.00;95515.88;5113176;28;20436;-56
2023/06/04 02:48:14;;;;;;;0.50;0.40;;;;;;;17.24;100.00;95518.94;5113375;28;20829;-56
2023/06/04 02:50:43;;;;;;;1.17;0.50;;;;;;;17.26;100.00;95515.94;5112950;28;20467;-56
2023/06/04 02:53:13;;;;;;;0.40;0.30;;;;;;;17.35;100.00;95528.31;5112714;28;20428;-56
2023/06/04 02:55:42;;;;;;;0.50;0.40;;;;;;;17.22;100.00;95526.50;5113458;28;20463;-56
2023/06/04 02:58:10;;;;;;;1.70;0.40;;;;;;;16.99;100.00;95522.22;5112295;28;20471;-56
2023/06/04 03:00:39;;;;;;;0.77;0.73;;;;;;;17.01;100.00;95526.19;5112905;28;20880;-56
2023/06/04 03:03:07;;;;;;;0.97;0.97;;;;;;;17.26;100.00;95527.44;5112919;28;20455;-56
2023/06/04 03:05:36;;;;;;;0.50;0.40;;;;;;;16.94;100.00;95531.19;5112495;28;21020;-56
2023/06/04 03:08:06;;;;;;;0.50;0.40;;;;;;;16.65;100.00;95538.00;5112973;28;20438;-56
2023/06/04 03:10:36;;;;;;;1.73;1.13;;;;;;;16.75;100.00;95540.44;5112961;28;20446;-56
2023/06/04 03:13:04;;;;;;;0.40;0.30;;;;;;;17.04;100.00;95544.34;5112656;28;20436;-56
2023/06/04 03:15:32;;;;;;;0.77;0.40;;;;;;;16.57;100.00;95547.53;5112278;28;20436;-56
2023/06/04 03:18:01;;;;;;;0.50;0.40;;;;;;;16.86;100.00;95549.84;5112266;28;20536;-56
2023/06/04 03:20:29;;;;;;;0.40;0.30;;;;;;;17.11;100.00;95547.38;5104718;28;20523;-58
2023/06/04 03:22:58;;;;;;;0.40;0.30;;;;;;;16.97;100.00;95552.00;5112338;28;20516;-56
2023/06/04 03:25:26;;;;;;;1.10;1.10;;;;;;;16.65;100.00;95552.19;5112261;28;20439;-56
2023/06/04 03:27:56;;;;;;;2.87;0.47;;;;;;;16.58;100.00;95535.75;5112440;28;20444;-56
2023/06/04 03:30:24;;;;;;;1.40;0.67;;;;;;;16.92;100.00;95562.81;5112338;28;20461;-56
2023/06/04 03:32:53;;;;;;;2.90;0.60;;;;;;;17.15;100.00;95547.56;5112421;28;20446;-56
2023/06/04 03:35:21;;;;;;;0.40;0.40;;;;;;;17.23;100.00;95559.44;5111688;28;20432;-57
2023/06/04 03:37:49;;;;;;;0.60;0.53;;;;;;;16.86;100.00;95556.00;5112391;28;20468;-57
2023/06/04 03:40:18;;;;;;;0.97;0.70;;;;;;;16.51;100.00;95554.88;5111859;28;20447;-56
2023/06/04 03:42:46;;;;;;;0.63;0.63;;;;;;;16.46;100.00;95562.22;5112656;28;20878;-56
2023/06/04 03:45:16;;;;;;;0.50;0.50;;;;;;;16.40;100.00;95558.84;5111938;28;20489;-56
2023/06/04 03:47:44;;;;;;;1.43;1.33;;;;;;;16.10;100.00;95551.44;5100216;28;20486;-57
2023/06/04 03:50:13;;;;;;;2.00;1.90;;;;;;;16.07;100.00;95570.75;5111436;28;20454;-56
2023/06/04 03:52:41;;;;;;;2.87;1.13;;;;;;;16.19;100.00;95564.91;5112165;28;20498;-56
2023/06/04 03:55:10;;;;;;;2.00;1.90;;;;;;;16.72;100.00;95570.53;5112101;28;20484;-57
2023/06/04 03:57:39;;;;;;;0.60;0.50;;;;;;;16.43;100.00;95568.94;5112064;28;20467;-57
2023/06/04 04:00:12;;;;;;;0.50;0.50;;;;;;;16.32;100.00;95572.91;5112062;28;20443;-57
2023/06/04 04:02:42;;;;;;;0.80;0.80;;;;;;;16.15;100.00;95583.44;5111768;28;20440;-57
2023/06/04 04:05:11;;;;;;;0.70;0.60;;;;;;;16.22;100.00;95583.81;5112029;28;20515;-57
2023/06/04 04:07:41;;;;;;;0.60;0.40;;;;;;;16.04;100.00;95590.06;5111654;28;20482;-57
2023/06/04 04:10:10;;;;;;;1.13;1.03;;;;;;;16.09;100.00;95584.59;5112153;28;20880;-57
2023/06/04 04:12:39;;;;;;;0.67;0.63;;;;;;;16.45;100.00;95590.84;5111234;28;20431;-57
2023/06/04 04:15:08;;;;;;;0.90;0.90;;;;;;;16.58;100.00;95573.22;5112019;28;20518;-57
2023/06/04 04:17:36;;;;;;;0.70;0.40;;;;;;;16.79;100.00;95590.44;5112190;28;20432;-57
2023/06/04 04:20:07;;;;;;;0.60;0.40;;;;;;;16.99;100.00;95586.50;5112126;28;20518;-57
2023/06/04 04:22:35;;;;;;;0.47;0.37;;;;;;;17.08;100.00;95588.16;5111794;28;20428;-58
2023/06/04 04:25:04;;;;;;;0.40;0.20;;;;;;;17.24;100.00;95587.78;5112176;28;20429;-58
2023/06/04 04:27:34;;;;;;;2.43;1.73;;;;;;;17.42;100.00;95595.66;5112167;28;20440;-58
2023/06/04 04:30:04;;;;;;;0.40;0.30;;;;;;;17.31;100.00;95588.16;5111258;28;20532;-58
2023/06/04 04:32:32;;;;;;;0.70;0.50;;;;;;;17.58;100.00;95586.16;5114078;28;20440;-58
2023/06/04 04:35:00;;;;;;;0.40;0.20;;;;;;;17.69;100.00;95592.84;5115594;28;20435;-58
2023/06/04 04:37:30;;;;;;;0.40;0.20;;;;;;;17.82;100.00;95588.50;5116001;28;20496;-58
2023/06/04 04:39:58;;;;;;;0.40;0.30;;;;;;;17.65;100.00;95585.75;5115703;28;20478;-58
2023/06/04 04:42:27;;;;;;;0.40;0.30;;;;;;;17.46;100.00;95588.56;5115866;28;20450;-58
2023/06/04 04:44:55;;;;;;;0.40;0.40;;;;;;;17.48;100.00;95589.06;5115373;28;20955;-58
2023/06/04 04:47:23;;;;;;;1.07;0.40;;;;;;;17.45;100.00;95578.19;5115813;28;20440;-59
2023/06/04 04:49:52;;;;;;;0.90;0.70;;;;;;;17.28;100.00;95592.22;5115236;28;20439;-58
2023/06/04 04:52:20;;;;;;;0.77;0.77;;;;;;;16.92;100.00;95596.84;5115879;28;20867;-58
2023/06/04 04:54:50;;;;;;;2.37;0.63;;;;;;;16.87;100.00;95611.13;5115380;28;20443;-59
2023/06/04 04:57:19;;;;;;;0.70;0.67;;;;;;;16.74;100.00;95613.81;5115658;28;20444;-59
2023/06/04 04:59:47;;;;;;;0.80;0.80;;;;;;;16.78;100.00;95622.84;5115372;28;20474;-59
2023/06/04 05:02:15;;;;;;;0.73;0.70;;;;;;;16.67;100.00;95622.25;5115617;28;20427;-59
2023/06/04 05:04:44;;;;;;;1.03;0.80;;;;;;;17.04;100.00;95618.53;5115461;28;20428;-59
2023/06/04 05:07:12;;;;;;;3.70;0.40;;;;;;;16.66;100.00;95611.84;5115670;28;20435;-59
2023/06/04 05:09:41;;;;;;;1.03;0.97;;;;;;;16.86;100.00;95630.16;5115463;28;20440;-59
2023/06/04 05:12:11;;;;;;;1.10;0.50;;;;;;;16.99;100.00;95630.13;5115365;28;20458;-59
2023/06/04 05:14:40;;;;;;;1.23;1.13;;;;;;;16.99;100.00;95634.69;5102299;28;20427;-59
2023/06/04 05:17:10;;;;;;;0.80;0.80;;;;;;;17.41;100.00;95633.47;5115028;28;20444;-59
2023/06/04 05:19:39;;;;;;;0.50;0.37;;;;;;;17.83;100.00;95637.56;5114975;28;20486;-59
2023/06/04 05:22:08;;;;;;;0.40;0.30;;;;;;;17.32;100.00;95633.41;5115238;28;20464;-59
2023/06/04 05:24:36;;;;;;;0.80;0.80;;;;;;;17.31;100.00;95637.16;5115209;28;20439;-59
2023/06/04 05:27:05;;;;;;;0.50;0.40;;;;;;;16.98;100.00;95649.16;5115079;28;20805;-60
2023/06/04 05:29:36;;;;;;;0.40;0.30;;;;;;;17.24;100.00;95642.16;5114617;28;20520;-60
2023/06/04 05:32:04;;;;;;;0.90;0.90;;;;;;;17.22;100.00;95643.56;5115025;28;20431;-60
2023/06/04 05:34:36;;;;;;;1.03;1.03;;;;;;;17.53;100.00;95642.56;5114742;28;20446;-60
2023/06/04 05:37:08;;;;;;;0.60;0.40;;;;;;;18.00;100.00;95637.66;5114330;28;20526;-61
2023/06/04 05:39:39;;;;;;;0.60;0.60;;;;;;;17.71;100.00;95646.16;5114291;28;20475;-61
2023/06/04 05:42:07;;;;;;;1.70;0.87;;;;;;;17.47;100.00;95646.44;5114418;28;20508;-61
2023/06/04 05:44:37;;;;;;;0.93;0.87;;;;;;;17.74;100.00;95650.91;5113314;28;20504;-61
2023/06/04 05:47:06;;;;;;;0.60;0.50;;;;;;;18.15;100.00;95653.34;5114478;28;20919;-62
2023/06/04 05:49:35;;;;;;;0.93;0.57;;;;;;;17.80;100.00;95649.69;5114579;28;20445;-62
2023/06/04 05:52:05;;;;;;;0.50;0.40;;;;;;;17.74;100.00;95665.13;5114742;28;20497;-62
2023/06/04 05:54:33;;;;;;;0.60;0.60;;;;;;;17.81;100.00;95659.31;5114327;28;20495;-62
2023/06/04 05:57:02;;;;;;;0.40;0.20;;;;;;;18.20;100.00;95645.16;5114385;28;20854;-62
2023/06/04 05:59:30;;;;;;;0.43;0.30;;;;;;;18.72;100.00;95657.69;5114203;28;20571;-62
2023/06/04 06:02:00;;;;;;;0.43;0.40;;;;;;;18.72;100.00;95654.25;5114364;28;20436;-61
2023/06/04 06:04:29;;;;;;;0.57;0.57;;;;;;;18.78;100.00;95661.84;5113757;28;20515;-61
2023/06/04 06:06:57;;;;;;;0.50;0.50;;;;;;;19.22;100.00;95649.28;5114299;28;20436;-61
2023/06/04 06:09:25;;;;;;;1.77;0.47;;;;;;;18.80;100.00;95653.47;5114489;28;20424;-61
2023/06/04 06:11:54;;;;;;;0.63;0.47;;;;;;;18.35;100.00;95658.97;5114510;28;20462;-59
2023/06/04 06:14:23;;;;;;;0.83;0.80;;;;;;;18.37;100.00;95664.03;5113593;28;20489;-61
2023/06/04 06:16:52;;;;;;;0.53;0.53;;;;;;;18.27;100.00;95665.09;5114200;28;20435;-59
2023/06/04 06:19:22;;;;;;;1.67;1.57;;;;;;;18.78;100.00;95661.84;5113933;28;20472;-60
2023/06/04 06:21:50;;;;;;;1.10;0.50;;;;;;;18.76;100.00;95664.06;5113763;28;20468;-60
2023/06/04 06:24:19;;;;;;;1.60;1.50;;;;;;;19.59;100.00;95665.59;5113637;28;20477;-59
2023/06/04 06:26:47;;;;;;;1.27;1.00;;;;;;;19.90;100.00;95659.22;5114061;28;20552;-59
2023/06/04 06:29:16;;;;;;;0.50;0.40;;;;;;;19.92;100.00;95649.72;5113612;28;20525;-59
2023/06/04 06:31:44;;;;;;;0.93;0.50;;;;;;;19.30;100.00;95656.56;5113238;28;20440;-59
2023/06/04 06:34:12;;;;;;;0.70;0.70;;;;;;;20.09;100.00;95660.44;5113751;27;20440;-59
2023/06/04 06:36:44;;;;;;;0.60;0.50;;;;;;;20.25;100.00;95666.94;5113093;28;20440;-59
2023/06/04 06:39:12;;;;;;;0.90;0.90;;;;;;;20.08;100.00;95639.25;5113138;28;20480;-59
2023/06/04 06:41:40;;;;;;;0.50;0.30;;;;;;;20.43;100.00;95658.78;5111506;28;20444;-59
2023/06/04 06:44:08;;;;;;;1.13;1.13;;;;;;;20.06;100.00;95646.84;5111816;27;20981;-59
2023/06/04 06:46:37;;;;;;;0.50;0.40;;;;;;;19.88;100.00;95651.47;5112312;28;20465;-60
2023/06/04 06:49:05;;;;;;;0.57;0.50;;;;;;;20.45;100.00;95673.50;5112403;28;20440;-60
2023/06/04 06:51:33;;;;;;;1.10;0.73;;;;;;;20.61;100.00;95666.47;5112011;28;20856;-60
2023/06/04 06:54:03;;;;;;;0.60;0.60;;;;;;;20.55;100.00;95670.44;5112540;28;20440;-61
2023/06/04 06:56:31;;;;;;;1.67;0.60;;;;;;;20.69;100.00;95657.56;5111579;28;20439;-60
2023/06/04 06:59:00;;;;;;;2.30;0.80;;;;;;;20.59;100.00;95667.91;5112142;28;20497;-60
2023/06/04 07:01:28;;;;;;;1.00;1.00;;;;;;;20.13;100.00;95663.28;5111890;28;20443;-60
2023/06/04 07:03:56;;;;;;;0.73;0.70;;;;;;;20.63;100.00;95668.84;5112529;28;20436;-60
2023/06/04 07:06:25;;;;;;;0.70;0.50;;;;;;;20.35;100.00;95663.09;5111883;28;20979;-60
2023/06/04 07:08:53;;;;;;;1.67;1.57;;;;;;;20.29;100.00;95664.38;5112275;28;20868;-59
2023/06/04 07:11:23;;;;;;;1.40;0.80;;;;;;;20.19;100.00;95665.47;5112069;28;20436;-59
2023/06/04 07:13:51;;;;;;;0.77;0.70;;;;;;;20.75;100.00;95667.03;5111931;28;20454;-59
2023/06/04 07:16:20;;;;;;;0.60;0.57;;;;;;;21.51;94.96;95658.78;5112078;28;20522;-59
2023/06/04 07:18:49;;;;;;;1.40;1.30;;;;;;;21.01;96.83;95674.97;5111714;28;20478;-59
2023/06/04 07:21:19;;;;;;;0.97;0.87;;;;;;;20.87;98.81;95679.81;5111574;28;20938;-58
2023/06/04 07:23:49;;;;;;;0.60;0.50;;;;;;;21.01;100.00;95674.97;5112230;28;20491;-58
2023/06/04 07:26:18;;;;;;;1.50;1.43;;;;;;;21.24;95.50;95684.38;5111814;28;20469;-58
2023/06/04 07:28:47;;;;;;;0.87;0.87;;;;;;;21.71;93.50;95674.16;5111391;28;21099;-57
2023/06/04 07:31:16;;;;;;;1.40;0.63;;;;;;;22.16;90.04;95679.66;5111822;28;20435;-58
2023/06/04 07:33:45;;;;;;;1.17;1.17;;;;;;;21.39;91.44;95674.91;5112318;28;20432;-57
2023/06/04 07:36:15;;;;;;;0.40;0.40;;;;;;;21.53;90.68;95675.44;5111858;28;20515;-57
2023/06/04 07:38:43;;;;;;;0.50;0.40;;;;;;;22.13;87.81;95678.44;5111759;28;20440;-56
2023/06/04 07:41:12;;;;;;;0.83;0.50;;;;;;;21.94;88.04;95683.53;5111372;28;20486;-56
2023/06/04 07:43:40;;;;;;;1.57;1.07;;;;;;;22.56;85.49;95677.94;5111474;28;20522;-56
2023/06/04 07:46:10;;;;;;;0.40;0.30;;;;;;;22.68;85.75;95683.38;5111356;28;20435;-56
2023/06/04 07:48:39;;;;;;;1.17;0.60;;;;;;;22.74;86.93;95682.03;5111680;28;20435;-56
2023/06/04 07:51:07;;;;;;;1.10;1.10;;;;;;;22.50;85.55;95683.88;5111688;28;20440;-56
2023/06/04 07:53:36;;;;;;;0.50;0.50;;;;;;;21.61;90.30;95685.38;5084372;28;20444;-56
2023/06/04 07:56:04;;;;;;;1.60;0.43;;;;;;;22.00;89.39;95687.59;5111618;28;20428;-56
2023/06/04 07:58:33;;;;;;;3.20;0.90;;;;;;;21.92;88.15;95688.47;5111740;28;20436;-56
2023/06/04 08:01:01;;;;;;;0.80;0.70;;;;;;;22.15;90.48;95686.19;5111554;28;20463;-56
2023/06/04 08:03:31;;;;;;;1.33;1.20;;;;;;;22.20;89.64;95691.38;5111153;28;20457;-56
2023/06/04 08:06:00;;;;;;;2.10;1.97;;;;;;;22.00;93.22;95684.09;5110688;28;20440;-56
2023/06/04 08:08:33;;;;;;;1.47;0.93;;;;;;;22.07;93.91;95692.44;5110995;28;20939;-56
2023/06/04 08:11:02;;;;;;;1.63;1.23;;;;;;;21.80;92.56;95685.69;5110464;28;20459;-56
2023/06/04 08:13:30;;;;;;;0.60;0.60;;;;;;;21.87;92.52;95685.19;5111273;28;21050;-57
2023/06/04 08:15:59;;;;;;;0.60;0.53;;;;;;;22.86;87.24;95681.25;5111242;28;20473;-56
2023/06/04 08:18:27;;;;;;;1.33;1.00;;;;;;;22.66;86.21;95687.56;5111255;28;20436;-56
2023/06/04 08:20:57;;;;;;;0.70;0.70;;;;;;;23.07;85.66;95678.44;5111324;28;20541;-56
2023/06/04 08:23:25;;;;;;;0.50;0.40;;;;;;;23.92;80.40;95677.13;5111503;28;20489;-57
2023/06/04 08:25:54;;;;;;;0.40;0.30;;;;;;;23.53;79.23;95680.63;5110960;28;20526;-58
2023/06/04 08:28:22;;;;;;;0.60;0.60;;;;;;;23.58;84.65;95672.25;5110902;28;20500;-58
2023/06/04 08:30:51;;;;;;;0.80;0.67;;;;;;;23.95;80.33;95665.59;5111051;28;20496;-58
2023/06/04 08:33:19;;;;;;;1.70;1.30;;;;;;;24.21;76.41;95673.25;5110936;28;20446;-59
2023/06/04 08:35:47;;;;;;;0.50;0.50;;;;;;;24.44;76.14;95665.34;5111432;28;20897;-59
2023/06/04 08:38:17;;;;;;;1.37;1.27;;;;;;;24.10;75.20;95671.41;5110986;28;20440;-59
2023/06/04 08:40:45;;;;;;;0.80;0.67;;;;;;;25.04;76.03;95667.66;5102712;28;20496;-58
2023/06/04 08:43:15;;;;;;;0.80;0.53;;;;;;;26.46;69.88;95658.56;5106250;28;20456;-58
2023/06/04 08:45:47;;;;;;;0.60;0.50;;;;;;;26.87;64.42;95654.22;5111080;28;20428;-59
2023/06/04 08:48:16;;;;;;;0.60;0.60;;;;;;;26.71;59.06;95660.94;5110963;28;20947;-59
2023/06/04 08:50:48;;;;;;;0.57;0.53;;;;;;;26.85;59.52;95653.81;5111116;28;20497;-60
2023/06/04 08:53:18;;;;;;;0.90;0.60;;;;;;;27.04;59.61;95658.38;5110278;28;20444;-60
2023/06/04 08:55:51;;;;;;;1.13;1.13;;;;;;;27.29;59.53;95647.84;5110826;28;20442;-60
2023/06/04 08:58:21;;;;;;;0.50;0.50;;;;;;;26.41;57.31;95656.13;5110246;28;20432;-60
2023/06/04 09:00:50;;;;;;;1.03;0.57;;;;;;;26.20;58.36;95655.78;5110816;28;20523;-60
2023/06/04 09:03:20;;;;;;;1.57;1.47;;;;;;;26.45;60.17;95610.00;5084248;28;20431;-59
2023/06/04 09:05:50;;;;;;;0.70;0.70;;;;;;;26.32;60.67;95652.09;5110117;28;20431;-59
2023/06/04 09:08:22;;;;;;;0.53;0.53;;;;;;;26.76;57.03;95655.19;5110584;28;20431;-59
2023/06/04 09:10:54;;;;;;;0.70;0.63;;;;;;;26.95;57.68;95646.94;5110203;28;20450;-59
2023/06/04 09:13:24;;;;;;;0.57;0.57;;;;;;;25.83;61.49;95638.34;5110642;28;20800;-59
2023/06/04 09:16:00;;;;;;;0.40;0.30;;;;;;;26.29;59.15;95650.88;5109700;28;20805;-59
2023/06/04 09:18:29;;;;;;;0.77;0.70;;;;;;;25.96;59.12;95647.91;5112081;28;20431;-59
2023/06/04 09:21:05;;;;;;;0.57;0.33;;;;;;;27.45;57.59;95645.78;5113908;28;20481;-58
2023/06/04 09:23:44;;;;;;;0.60;0.60;;;;;;;27.25;56.21;95642.34;5113666;28;20471;-58
2023/06/04 09:26:14;;;;;;;1.67;0.90;;;;;;;27.67;58.78;95637.53;5114280;28;20439;-58
2023/06/04 09:28:42;;;;;;;0.57;0.50;;;;;;;28.74;54.98;95634.00;5113917;28;21070;-58
2023/06/04 09:31:14;;;;;;;5.30;1.07;;;;;;;29.64;51.66;95631.47;5114192;28;20448;-58
2023/06/04 09:33:46;;;;;;;0.50;0.50;;;;;;;29.87;52.13;95629.25;5113881;28;20432;-58
2023/06/04 09:36:14;;;;;;;1.13;1.13;;;;;;;28.65;53.89;95620.66;5114212;28;20439;-58
2023/06/04 09:38:45;;;;;;;0.40;0.40;;;;;;;29.39;52.56;95631.34;5113789;28;21012;-59
2023/06/04 09:41:14;;;;;;;0.80;0.80;;;;;;;29.55;53.05;95615.41;5113768;28;21002;-58
2023/06/04 09:43:43;;;;;;;4.23;1.90;;;;;;;30.11;50.36;95614.88;5113651;28;20450;-58
2023/06/04 09:46:13;;;;;;;0.40;0.30;;;;;;;30.06;49.07;95624.22;5114225;28;20836;-58
2023/06/04 09:48:42;;;;;;;0.70;0.60;;;;;;;30.63;48.67;95624.38;5114528;28;20512;-58
2023/06/04 09:51:11;;;;;;;0.70;0.70;;;;;;;31.03;47.67;95615.00;5113740;28;20474;-58
2023/06/04 09:53:40;;;;;;;0.70;0.70;;;;;;;30.08;47.37;95623.88;5113681;28;20431;-58
2023/06/04 09:56:11;;;;;;;0.50;0.40;;;;;;;30.96;46.63;95613.06;5113486;28;20459;-59
2023/06/04 09:58:42;;;;;;;0.40;0.30;;;;;;;31.78;46.06;95608.16;5113723;28;20488;-59
2023/06/04 10:01:11;;;;;;;0.60;0.50;;;;;;;31.70;47.01;95601.91;5113367;28;20924;-58
2023/06/04 10:03:43;;;;;;;3.37;0.30;;;;;;;32.28;45.17;95601.28;5113725;28;20435;-59
2023/06/04 10:06:15;;;;;;;0.53;0.53;;;;;;;31.98;44.31;95595.53;5113417;28;20435;-59
2023/06/04 10:08:43;;;;;;;0.53;0.53;;;;;;;30.58;46.13;95605.59;5113665;28;20439;-59
2023/06/04 10:11:14;;;;;;;0.50;0.50;;;;;;;29.64;49.50;95598.69;5113205;28;20946;-59
2023/06/04 10:13:49;;;;;;;0.40;0.30;;;;;;;29.39;49.78;95604.84;5113357;28;20492;-59
2023/06/04 10:16:20;;;;;;;0.60;0.50;;;;;;;29.24;49.49;95605.13;5113447;28;20491;-59
2023/06/04 10:19:01;;;;;;;0.40;0.30;;;;;;;28.00;51.75;95597.78;5113164;28;20955;-59
2023/06/04 10:21:34;;;;;;;0.40;0.30;;;;;;;27.73;52.98;95601.78;5113512;28;20472;-59
2023/06/04 10:24:03;;;;;;;0.50;0.40;;;;;;;28.37;53.20;95595.84;5112817;28;20427;-59
2023/06/04 10:26:36;;;;;;;0.87;0.80;;;;;;;26.92;54.77;95596.00;5113089;28;20436;-59
2023/06/04 10:29:06;;;;;;;1.60;0.63;;;;;;;26.24;55.19;95539.75;5112259;28;20476;-60
2023/06/04 10:31:34;;;;;;;1.00;1.00;;;;;;;27.21;55.57;95589.03;5112676;28;20496;-59
2023/06/04 10:34:03;;;;;;;0.90;0.70;;;;;;;28.43;52.71;95583.44;5112955;28;20527;-58
2023/06/04 10:36:31;;;;;;;0.73;0.67;;;;;;;28.51;51.03;95557.81;5112837;28;20460;-60
2023/06/04 10:39:00;;;;;;;0.50;0.50;;;;;;;29.17;50.59;95580.50;5113120;28;20509;-61
2023/06/04 10:41:29;;;;;;;0.60;0.60;;;;;;;28.12;52.67;95579.25;5112854;28;20474;-60
2023/06/04 10:44:03;;;;;;;7.80;0.40;;;;;;;27.37;53.26;95563.19;5112853;28;20496;-59
2023/06/04 10:46:39;;;;;;;0.43;0.33;;;;;;;27.67;52.68;95582.25;5112612;28;20447;-61
2023/06/04 10:49:11;;;;;;;0.60;0.60;;;;;;;27.53;51.62;95582.06;5112923;28;20432;-59
2023/06/04 10:51:40;;;;;;;0.60;0.60;;;;;;;27.39;51.87;95576.47;5112385;28;20428;-57
2023/06/04 10:54:09;;;;;;;0.40;0.30;;;;;;;27.44;52.11;95579.66;5112992;28;20432;-58
2023/06/04 10:56:37;;;;;;;0.53;0.47;;;;;;;26.96;51.59;95577.81;5112553;28;20489;-58
2023/06/04 10:59:17;;;;;;;0.40;0.40;;;;;;;27.11;52.98;95565.97;5112220;28;20436;-57
2023/06/04 11:01:47;;;;;;;0.50;0.30;;;;;;;26.60;54.16;95576.47;5079674;28;20984;-57
2023/06/04 11:04:22;;;;;;;0.50;0.40;;;;;;;25.79;54.06;95575.81;5107219;28;20469;-57
2023/06/04 11:07:03;;;;;;;0.70;0.50;;;;;;;25.82;53.73;95574.31;5112052;28;20432;-56
2023/06/04 11:09:32;;;;;;;0.40;0.30;;;;;;;25.65;53.45;95507.66;5112109;28;20903;-56
2023/06/04 11:12:02;;;;;;;0.80;0.40;;;;;;;26.13;53.64;95568.69;5112046;28;20436;-56
2023/06/04 11:14:32;;;;;;;0.40;0.40;;;;;;;26.00;54.44;95567.28;5111868;28;20951;-56
2023/06/04 11:17:11;;;;;;;0.40;0.30;;;;;;;25.99;53.85;95576.56;5111974;28;20906;-56
2023/06/04 11:19:40;;;;;;;0.33;0.30;;;;;;;26.35;54.13;95565.19;5112513;28;20928;-57
2023/06/04 11:22:11;;;;;;;0.40;0.30;;;;;;;26.27;52.31;95570.84;5112265;28;20472;-56
2023/06/04 11:24:40;;;;;;;0.47;0.40;;;;;;;26.10;54.62;95576.75;5111894;28;20432;-56
2023/06/04 11:27:08;;;;;;;0.60;0.53;;;;;;;25.99;54.46;95579.28;5111755;28;20447;-56
2023/06/04 11:29:53;;;;;;;0.50;0.30;;;;;;;26.18;54.19;95576.56;5111631;28;20466;-56
2023/06/04 11:32:24;;;;;;;0.40;0.40;;;;;;;26.26;55.02;95575.50;5111604;28;20432;-57
2023/06/04 11:35:03;;;;;;;0.77;0.40;;;;;;;26.41;52.74;95577.31;5111764;28;20944;-57
2023/06/04 11:37:32;;;;;;;3.00;0.67;;;;;;;25.43;54.83;95567.28;5111822;28;20867;-57
2023/06/04 11:40:01;;;;;;;0.60;0.53;;;;;;;25.20;55.47;95578.84;5111949;28;20813;-56